Time,TemperatureF,DewpointF,PressureIn,WindDirection,WindDirectionDegrees,WindSpeedMPH,WindSpeedGustMPH,Humidity,HourlyPrecipIn,Conditions,Clouds,dailyrainin,SoftwareType,DateUTC
2012-01-10 00:00:00,46.0,42.4,30.06,ESE,109,0.0,0.0,87,0.00,,,0.00,VWS V13.01,2012-01-10 06:00:00,
2012-01-10 00:05:00,46.0,42.1,30.06,ESE,109,0.0,0.0,86,0.00,,,0.00,VWS V13.01,2012-01-10 06:05:00,
2012-01-10 00:10:00,46.0,43.0,30.06,North,349,0.0,0.0,89,0.00,,,0.00,VWS V13.01,2012-01-10 06:10:00,
2012-01-10 00:15:00,46.0,42.7,30.06,NNW,340,0.0,0.0,88,0.00,,,0.00,VWS V13.01,2012-01-10 06:15:00,
2012-01-10 00:20:00,46.0,42.7,30.06,NE,38,0.0,0.0,88,0.00,,,0.00,VWS V13.01,2012-01-10 06:20:00,
2012-01-10 00:25:00,45.9,42.8,30.06,NE,47,2.7,2.7,89,0.00,,,0.00,VWS V13.01,2012-01-10 06:25:00,
2012-01-10 00:30:00,45.9,42.8,30.06,SE,125,2.7,3.1,89,0.00,,,0.00,VWS V13.01,2012-01-10 06:30:00,
2012-01-10 00:35:00,45.7,42.3,30.06,ESE,118,0.0,0.0,88,0.00,,,0.00,VWS V13.01,2012-01-10 06:35:00,
2012-01-10 00:40:00,45.7,41.7,30.06,ESE,118,0.0,0.0,86,0.00,,,0.00,VWS V13.01,2012-01-10 06:40:00,
2012-01-10 00:46:00,45.9,41.9,30.06,ESE,118,0.0,0.0,86,0.00,,,0.00,VWS V13.01,2012-01-10 06:46:00,
2012-01-10 00:51:00,45.9,42.8,30.06,ENE,73,0.0,0.0,89,0.00,,,0.00,VWS V13.01,2012-01-10 06:51:00,
2012-01-10 00:56:00,45.9,42.5,30.06,ENE,73,0.0,0.0,88,0.00,,,0.00,VWS V13.01,2012-01-10 06:56:00,
2012-01-10 01:01:00,45.9,42.2,30.03,ENE,74,0.0,0.0,87,0.00,,,0.00,VWS V13.01,2012-01-10 07:01:00,
2012-01-10 01:06:00,45.9,42.2,30.03,ENE,74,0.0,0.0,87,0.00,,,0.00,VWS V13.01,2012-01-10 07:06:00,
2012-01-10 01:11:00,45.9,42.2,30.03,ENE,74,0.0,0.0,87,0.00,,,0.00,VWS V13.01,2012-01-10 07:11:00,
2012-01-10 01:16:00,45.9,42.2,30.03,ENE,73,0.0,0.0,87,0.00,,,0.00,VWS V13.01,2012-01-10 07:16:00,
2012-01-10 01:21:00,45.9,41.6,30.03,NNW,333,0.0,0.0,85,0.00,,,0.00,VWS V13.01,2012-01-10 07:21:00,
2012-01-10 01:26:00,45.9,41.9,30.03,NW,323,0.0,0.0,86,0.00,,,0.00,VWS V13.01,2012-01-10 07:26:00,
2012-01-10 01:31:00,45.9,42.2,30.03,North,5,0.0,0.0,87,0.00,,,0.00,VWS V13.01,2012-01-10 07:31:00,
2012-01-10 01:36:00,45.9,41.9,30.03,NE,46,0.0,0.0,86,0.00,,,0.00,VWS V13.01,2012-01-10 07:36:00,
2012-01-10 01:41:00,45.9,41.9,30.03,NE,47,0.0,0.0,86,0.00,,,0.00,VWS V13.01,2012-01-10 07:41:00,
2012-01-10 01:46:00,45.7,41.7,30.03,NE,47,0.0,0.0,86,0.00,,,0.00,VWS V13.01,2012-01-10 07:46:00,
2012-01-10 01:51:00,45.7,41.7,30.03,NE,48,0.0,0.0,86,0.00,,,0.00,VWS V13.01,2012-01-10 07:51:00,
2012-01-10 01:56:00,45.7,41.4,30.03,NE,47,0.0,0.0,85,0.00,,,0.00,VWS V13.01,2012-01-10 07:56:00,
2012-01-10 02:01:00,45.7,41.7,30.03,SE,143,0.0,0.0,86,0.00,,,0.00,VWS V13.01,2012-01-10 08:01:00,
2012-01-10 02:06:00,45.5,41.9,30.03,South,178,0.0,2.2,87,0.00,,,0.00,VWS V13.01,2012-01-10 08:06:00,
2012-01-10 02:11:00,45.7,41.4,30.03,South,188,0.0,0.0,85,0.00,,,0.00,VWS V13.01,2012-01-10 08:11:00,
2012-01-10 02:16:00,45.7,42.3,30.03,South,188,0.0,0.0,88,0.00,,,0.00,VWS V13.01,2012-01-10 08:16:00,
2012-01-10 02:21:00,45.7,41.7,30.03,South,188,0.0,0.0,86,0.00,,,0.00,VWS V13.01,2012-01-10 08:21:00,
2012-01-10 02:26:00,45.7,42.0,30.03,North,355,0.0,0.0,87,0.00,,,0.00,VWS V13.01,2012-01-10 08:26:00,
2012-01-10 02:31:00,45.5,42.2,30.03,NNW,342,0.0,0.0,88,0.00,,,0.00,VWS V13.01,2012-01-10 08:31:00,
2012-01-10 02:36:00,45.3,41.4,30.03,NNW,343,0.0,0.0,86,0.00,,,0.00,VWS V13.01,2012-01-10 08:36:00,
2012-01-10 02:41:00,45.3,40.8,30.03,North,355,0.0,0.0,84,0.00,,,0.00,VWS V13.01,2012-01-10 08:41:00,
2012-01-10 02:46:00,45.5,40.7,30.03,North,355,0.0,0.0,83,0.00,,,0.00,VWS V13.01,2012-01-10 08:46:00,
2012-01-10 02:51:00,45.5,41.6,30.03,North,356,0.0,0.0,86,0.00,,,0.00,VWS V13.01,2012-01-10 08:51:00,
2012-01-10 02:56:00,45.5,41.9,30.03,North,10,0.0,0.0,87,0.00,,,0.00,VWS V13.01,2012-01-10 08:56:00,
2012-01-10 03:01:00,45.3,40.8,30.03,NNE,18,2.7,2.7,84,0.00,,,0.00,VWS V13.01,2012-01-10 09:01:00,
2012-01-10 03:06:00,45.3,40.8,30.03,NE,40,2.2,2.2,84,0.00,,,0.00,VWS V13.01,2012-01-10 09:06:00,
2012-01-10 03:11:00,45.3,41.7,30.03,NNE,26,3.6,3.6,87,0.00,,,0.00,VWS V13.01,2012-01-10 09:11:00,
2012-01-10 03:16:00,45.1,40.9,30.01,NNE,30,3.6,3.6,85,0.00,,,0.00,VWS V13.01,2012-01-10 09:16:00,
2012-01-10 03:21:00,45.1,40.9,30.01,NE,34,3.1,3.1,85,0.00,,,0.00,VWS V13.01,2012-01-10 09:21:00,
2012-01-10 03:26:00,45.3,39.5,30.01,NE,47,0.0,0.0,80,0.00,,,0.00,VWS V13.01,2012-01-10 09:26:00,
2012-01-10 03:31:00,45.7,38.6,30.01,NE,42,3.6,4.0,76,0.00,,,0.00,VWS V13.01,2012-01-10 09:31:00,
2012-01-10 03:36:00,45.9,38.4,30.01,East,83,0.0,0.0,75,0.00,,,0.00,VWS V13.01,2012-01-10 09:36:00,
2012-01-10 03:41:00,45.9,38.7,30.01,ESE,121,0.0,0.0,76,0.00,,,0.00,VWS V13.01,2012-01-10 09:41:00,
2012-01-10 03:46:00,45.9,37.0,29.98,NE,38,2.7,2.7,71,0.00,,,0.00,VWS V13.01,2012-01-10 09:46:00,
2012-01-10 03:51:00,45.9,37.0,29.98,NE,53,2.7,2.7,71,0.00,,,0.00,VWS V13.01,2012-01-10 09:51:00,
2012-01-10 03:56:00,45.9,35.2,29.98,NE,52,3.1,3.1,66,0.00,,,0.00,VWS V13.01,2012-01-10 09:56:00,
2012-01-10 04:01:00,45.9,34.4,29.95,NE,51,3.1,4.0,64,0.00,,,0.00,VWS V13.01,2012-01-10 10:01:00,
2012-01-10 04:06:00,46.0,34.2,29.95,NE,39,5.4,5.4,63,0.00,,,0.00,VWS V13.01,2012-01-10 10:06:00,
2012-01-10 04:11:00,46.4,32.4,29.95,NE,50,4.9,5.4,58,0.00,,,0.00,VWS V13.01,2012-01-10 10:11:00,
2012-01-10 04:16:00,46.6,31.7,29.92,East,88,3.6,5.4,56,0.00,,,0.00,VWS V13.01,2012-01-10 10:16:00,
2012-01-10 04:21:00,46.9,32.5,29.92,South,177,3.1,4.0,57,0.00,,,0.00,VWS V13.01,2012-01-10 10:21:00,
2012-01-10 04:26:00,47.1,32.2,29.92,ESE,118,2.7,3.1,56,0.00,,,0.00,VWS V13.01,2012-01-10 10:26:00,
2012-01-10 04:31:00,47.3,32.4,29.95,SSE,150,3.1,3.1,56,0.00,,,0.00,VWS V13.01,2012-01-10 10:31:00,
2012-01-10 04:36:00,47.3,32.0,29.95,East,82,0.0,0.0,55,0.00,,,0.00,VWS V13.01,2012-01-10 10:36:00,
2012-01-10 04:41:00,47.5,31.7,29.95,ENE,75,0.0,0.0,54,0.00,,,0.00,VWS V13.01,2012-01-10 10:41:00,
2012-01-10 04:46:00,47.8,32.0,29.98,East,98,2.7,2.7,54,0.00,,,0.00,VWS V13.01,2012-01-10 10:46:00,
2012-01-10 04:51:00,48.0,32.6,29.98,SE,124,2.2,2.2,55,0.00,,,0.00,VWS V13.01,2012-01-10 10:51:00,
2012-01-10 04:56:00,47.8,32.5,29.98,ENE,71,2.7,2.7,55,0.00,,,0.00,VWS V13.01,2012-01-10 10:56:00,
2012-01-10 05:01:00,47.8,31.5,29.98,NE,42,0.0,0.0,53,0.00,,,0.00,VWS V13.01,2012-01-10 11:01:00,
2012-01-10 05:06:00,48.0,32.2,29.98,NE,41,0.0,0.0,54,0.00,,,0.00,VWS V13.01,2012-01-10 11:06:00,
2012-01-10 05:11:00,48.2,31.9,29.98,East,83,0.0,0.0,53,0.00,,,0.00,VWS V13.01,2012-01-10 11:11:00,
2012-01-10 05:16:00,48.4,32.5,29.98,SSE,150,0.0,0.0,54,0.00,,,0.00,VWS V13.01,2012-01-10 11:16:00,
2012-01-10 05:21:00,48.4,33.4,29.98,SSW,206,0.0,0.0,56,0.00,,,0.00,VWS V13.01,2012-01-10 11:21:00,
2012-01-10 05:26:00,48.2,32.8,29.98,NW,307,3.1,3.1,55,0.00,,,0.00,VWS V13.01,2012-01-10 11:26:00,
2012-01-10 05:31:00,48.0,33.1,29.98,West,277,0.0,0.0,56,0.00,,,0.00,VWS V13.01,2012-01-10 11:31:00,
2012-01-10 05:36:00,47.8,33.4,29.98,West,281,0.0,0.0,57,0.00,,,0.00,VWS V13.01,2012-01-10 11:36:00,
2012-01-10 05:41:00,47.7,33.2,29.98,West,280,0.0,0.0,57,0.00,,,0.00,VWS V13.01,2012-01-10 11:41:00,
2012-01-10 05:46:00,47.7,32.8,29.98,West,280,0.0,0.0,56,0.00,,,0.00,VWS V13.01,2012-01-10 11:46:00,
2012-01-10 05:51:00,47.7,33.2,29.98,West,281,0.0,0.0,57,0.00,,,0.00,VWS V13.01,2012-01-10 11:51:00,
2012-01-10 05:56:00,47.7,33.6,29.98,West,281,0.0,0.0,58,0.00,,,0.00,VWS V13.01,2012-01-10 11:56:00,
2012-01-10 06:01:00,47.5,34.3,29.98,West,281,0.0,0.0,60,0.00,,,0.00,VWS V13.01,2012-01-10 12:01:00,
2012-01-10 06:06:00,47.5,33.9,29.98,West,280,0.0,0.0,59,0.00,,,0.00,VWS V13.01,2012-01-10 12:06:00,
2012-01-10 06:11:00,47.3,34.5,29.98,West,280,0.0,0.0,61,0.00,,,0.00,VWS V13.01,2012-01-10 12:11:00,
2012-01-10 06:16:00,47.3,34.5,29.98,West,281,0.0,0.0,61,0.00,,,0.00,VWS V13.01,2012-01-10 12:16:00,
2012-01-10 06:21:00,47.3,35.0,29.98,West,281,0.0,0.0,62,0.00,,,0.00,VWS V13.01,2012-01-10 12:21:00,
2012-01-10 06:26:00,46.9,34.6,29.98,West,264,0.0,0.0,62,0.00,,,0.00,VWS V13.01,2012-01-10 12:26:00,
2012-01-10 06:31:00,46.9,35.0,29.98,West,264,0.0,0.0,63,0.00,,,0.00,VWS V13.01,2012-01-10 12:31:00,
2012-01-10 06:36:00,46.9,36.9,29.98,West,264,0.0,0.0,68,0.00,,,0.00,VWS V13.01,2012-01-10 12:36:00,
2012-01-10 06:41:00,46.8,36.4,29.98,WNW,303,0.0,0.0,67,0.00,,,0.00,VWS V13.01,2012-01-10 12:41:00,
2012-01-10 06:46:00,46.8,35.2,29.95,NNE,27,0.0,0.0,64,0.00,,,0.00,VWS V13.01,2012-01-10 12:46:00,
2012-01-10 06:51:00,46.9,35.8,29.95,East,90,3.1,3.1,65,0.00,,,0.00,VWS V13.01,2012-01-10 12:51:00,
2012-01-10 06:56:00,46.8,34.8,29.95,ENE,72,2.7,3.1,63,0.00,,,0.00,VWS V13.01,2012-01-10 12:56:00,
2012-01-10 07:01:00,46.8,34.8,29.98,East,99,2.2,2.7,63,0.00,,,0.00,VWS V13.01,2012-01-10 13:01:00,
2012-01-10 07:06:00,46.8,34.8,29.98,East,98,0.0,2.2,63,0.00,,,0.00,VWS V13.01,2012-01-10 13:06:00,
2012-01-10 07:11:00,47.1,33.5,29.98,NE,38,0.0,0.0,59,0.00,,,0.00,VWS V13.01,2012-01-10 13:11:00,
2012-01-10 07:16:00,47.3,33.3,29.98,ENE,66,0.0,2.7,58,0.00,,,0.00,VWS V13.01,2012-01-10 13:16:00,
2012-01-10 07:21:00,47.5,33.0,29.98,ENE,62,0.0,0.0,57,0.00,,,0.00,VWS V13.01,2012-01-10 13:21:00,
2012-01-10 07:26:00,47.7,32.3,29.98,NE,40,0.0,0.0,55,0.00,,,0.00,VWS V13.01,2012-01-10 13:26:00,
2012-01-10 07:31:00,47.8,32.9,29.98,NNE,30,3.1,3.1,56,0.00,,,0.00,VWS V13.01,2012-01-10 13:31:00,
2012-01-10 07:36:00,48.0,32.6,29.98,NE,43,4.0,4.0,55,0.00,,,0.00,VWS V13.01,2012-01-10 13:36:00,
2012-01-10 07:41:00,48.0,32.6,29.98,NNE,25,0.0,0.0,55,0.00,,,0.00,VWS V13.01,2012-01-10 13:41:00,
2012-01-10 07:46:00,48.0,32.6,29.98,NE,47,0.0,0.0,55,0.00,,,0.00,VWS V13.01,2012-01-10 13:46:00,
2012-01-10 07:51:00,48.0,32.2,29.98,NE,38,4.0,4.0,54,0.00,,,0.00,VWS V13.01,2012-01-10 13:51:00,
2012-01-10 07:56:00,48.2,32.3,29.98,NE,42,3.1,3.1,54,0.00,,,0.00,VWS V13.01,2012-01-10 13:56:00,
2012-01-10 08:01:00,48.4,32.5,29.95,NE,36,2.2,4.0,54,0.00,,,0.00,VWS V13.01,2012-01-10 14:01:00,
2012-01-10 08:06:00,48.4,32.0,29.95,East,79,0.0,0.0,53,0.00,,,0.00,VWS V13.01,2012-01-10 14:06:00,
2012-01-10 08:11:00,48.6,32.2,29.95,NE,43,2.7,2.7,53,0.00,,,0.00,VWS V13.01,2012-01-10 14:11:00,
2012-01-10 08:16:00,48.7,31.9,29.95,NNE,33,4.0,4.0,52,0.00,,,0.00,VWS V13.01,2012-01-10 14:16:00,
2012-01-10 08:21:00,49.1,32.2,29.95,NNE,33,3.1,3.6,52,0.00,,,0.00,VWS V13.01,2012-01-10 14:21:00,
2012-01-10 08:26:00,49.3,31.9,29.95,NNE,29,4.9,4.9,51,0.00,,,0.00,VWS V13.01,2012-01-10 14:26:00,
2012-01-10 08:31:00,49.3,31.9,29.92,NE,35,4.0,4.0,51,0.00,,,0.00,VWS V13.01,2012-01-10 14:31:00,
2012-01-10 08:36:00,49.5,31.6,29.92,NE,38,4.0,6.3,50,0.00,,,0.00,VWS V13.01,2012-01-10 14:36:00,
2012-01-10 08:41:00,49.5,31.6,29.92,ENE,63,3.1,4.0,50,0.00,,,0.00,VWS V13.01,2012-01-10 14:41:00,
2012-01-10 08:46:00,49.6,31.3,29.95,East,84,4.0,4.0,49,0.00,,,0.00,VWS V13.01,2012-01-10 14:46:00,
2012-01-10 08:51:00,49.8,30.9,29.95,East,84,0.0,0.0,48,0.00,,,0.00,VWS V13.01,2012-01-10 14:51:00,
2012-01-10 08:56:00,49.8,30.9,29.95,East,81,0.0,0.0,48,0.00,,,0.00,VWS V13.01,2012-01-10 14:56:00,
2012-01-10 09:01:00,49.8,31.4,29.95,ENE,57,2.7,3.1,49,0.00,,,0.00,VWS V13.01,2012-01-10 15:01:00,
2012-01-10 09:06:00,50.0,30.6,29.95,ENE,68,0.0,3.1,47,0.00,,,0.00,VWS V13.01,2012-01-10 15:06:00,
2012-01-10 09:11:00,50.0,31.1,29.95,NE,45,3.6,4.0,48,0.00,,,0.00,VWS V13.01,2012-01-10 15:11:00,
2012-01-10 09:16:00,50.0,30.6,29.95,ENE,62,3.6,3.6,47,0.00,,,0.00,VWS V13.01,2012-01-10 15:16:00,
2012-01-10 09:21:00,50.0,31.1,29.95,ESE,123,2.2,2.2,48,0.00,,,0.00,VWS V13.01,2012-01-10 15:21:00,
2012-01-10 09:26:00,50.2,31.8,29.95,East,87,4.0,4.0,49,0.00,,,0.00,VWS V13.01,2012-01-10 15:26:00,
2012-01-10 09:31:00,50.2,31.8,29.95,East,80,0.0,3.1,49,0.00,,,0.00,VWS V13.01,2012-01-10 15:31:00,
2012-01-10 09:36:00,50.2,32.3,29.95,South,177,0.0,0.0,50,0.00,,,0.00,VWS V13.01,2012-01-10 15:36:00,
2012-01-10 09:41:00,50.0,33.1,29.95,South,178,0.0,0.0,52,0.00,,,0.00,VWS V13.01,2012-01-10 15:41:00,
2012-01-10 09:46:00,49.8,33.4,29.95,West,263,0.0,0.0,53,0.00,,,0.00,VWS V13.01,2012-01-10 15:46:00,
2012-01-10 09:51:00,49.8,33.4,29.95,West,263,0.0,0.0,53,0.00,,,0.00,VWS V13.01,2012-01-10 15:51:00,
2012-01-10 09:56:00,49.8,33.4,29.95,West,263,0.0,0.0,53,0.00,,,0.00,VWS V13.01,2012-01-10 15:56:00,
2012-01-10 10:01:00,49.8,33.4,29.95,West,263,0.0,0.0,53,0.00,,,0.00,VWS V13.01,2012-01-10 16:01:00,
2012-01-10 10:06:00,49.8,33.9,29.95,SE,129,3.6,3.6,54,0.00,,,0.00,VWS V13.01,2012-01-10 16:06:00,
2012-01-10 10:11:00,49.6,34.6,29.95,SE,129,0.0,0.0,56,0.00,,,0.00,VWS V13.01,2012-01-10 16:11:00,
2012-01-10 10:16:00,49.6,33.7,29.95,SE,139,4.9,4.9,54,0.00,,,0.00,VWS V13.01,2012-01-10 16:16:00,
2012-01-10 10:21:00,49.1,37.1,29.95,South,171,8.7,8.7,63,0.00,,,0.00,VWS V13.01,2012-01-10 16:21:00,
2012-01-10 10:26:00,47.5,38.9,29.95,SSW,196,3.6,3.6,72,0.04,,,0.04,VWS V13.01,2012-01-10 16:26:00,
2012-01-10 10:31:00,45.9,38.7,29.95,SE,132,2.2,2.2,76,0.08,,,0.08,VWS V13.01,2012-01-10 16:31:00,
2012-01-10 10:36:00,44.6,41.6,29.95,NNE,26,3.1,3.1,89,0.12,,,0.12,VWS V13.01,2012-01-10 16:36:00,
2012-01-10 10:41:00,44.1,43.5,29.95,NNE,28,2.7,3.6,98,0.12,,,0.12,VWS V13.01,2012-01-10 16:41:00,
2012-01-10 10:46:00,43.5,43.0,29.92,WNW,301,0.0,0.0,98,0.16,,,0.16,VWS V13.01,2012-01-10 16:46:00,
2012-01-10 10:51:00,43.5,43.0,29.92,SSW,197,2.7,2.7,98,0.16,,,0.16,VWS V13.01,2012-01-10 16:51:00,
2012-01-10 10:56:00,43.3,42.8,29.92,SSW,195,0.0,0.0,98,0.16,,,0.16,VWS V13.01,2012-01-10 16:56:00,
2012-01-10 11:01:00,43.7,43.7,29.92,North,358,2.2,2.2,100,0.16,,,0.16,VWS V13.01,2012-01-10 17:01:00,
2012-01-10 11:06:00,43.5,43.5,29.92,WSW,240,2.7,2.7,100,0.16,,,0.16,VWS V13.01,2012-01-10 17:06:00,
2012-01-10 11:11:00,43.5,43.5,29.92,WSW,249,2.7,3.6,100,0.16,,,0.16,VWS V13.01,2012-01-10 17:11:00,
2012-01-10 11:16:00,43.9,43.9,29.92,NW,306,0.0,0.0,100,0.16,,,0.16,VWS V13.01,2012-01-10 17:16:00,
2012-01-10 11:21:00,43.9,43.9,29.92,WSW,250,0.0,0.0,100,0.16,,,0.16,VWS V13.01,2012-01-10 17:21:00,
2012-01-10 11:26:00,44.1,44.1,29.92,WSW,243,0.0,0.0,100,0.12,,,0.16,VWS V13.01,2012-01-10 17:26:00,
2012-01-10 11:31:00,44.2,44.2,29.92,WSW,241,0.0,0.0,100,0.08,,,0.16,VWS V13.01,2012-01-10 17:31:00,
2012-01-10 11:36:00,44.6,44.6,29.92,SSE,152,0.0,0.0,100,0.04,,,0.16,VWS V13.01,2012-01-10 17:36:00,
2012-01-10 11:41:00,44.6,44.6,29.92,SSE,152,0.0,0.0,100,0.04,,,0.16,VWS V13.01,2012-01-10 17:41:00,
2012-01-10 11:46:00,44.6,44.6,29.89,East,85,0.0,0.0,100,0.00,,,0.16,VWS V13.01,2012-01-10 17:46:00,
2012-01-10 11:51:00,44.8,44.8,29.89,NNW,328,0.0,0.0,100,0.00,,,0.16,VWS V13.01,2012-01-10 17:51:00,
2012-01-10 11:56:00,45.1,44.6,29.89,WSW,254,3.6,3.6,98,0.00,,,0.16,VWS V13.01,2012-01-10 17:56:00,
2012-01-10 12:01:00,45.3,45.3,29.89,South,172,4.0,4.0,100,0.00,,,0.16,VWS V13.01,2012-01-10 18:01:00,
2012-01-10 12:06:00,45.3,45.3,29.89,South,175,4.9,4.9,100,0.00,,,0.16,VWS V13.01,2012-01-10 18:06:00,
2012-01-10 12:11:00,45.1,45.1,29.89,SSW,210,3.6,3.6,100,0.00,,,0.16,VWS V13.01,2012-01-10 18:11:00,
2012-01-10 12:16:00,45.1,45.1,29.86,SSW,212,2.7,2.7,100,0.00,,,0.16,VWS V13.01,2012-01-10 18:16:00,
2012-01-10 12:21:00,45.0,45.0,29.86,SW,218,2.7,2.7,100,0.00,,,0.16,VWS V13.01,2012-01-10 18:21:00,
2012-01-10 12:26:00,44.8,44.8,29.86,NW,308,3.6,3.6,100,0.00,,,0.16,VWS V13.01,2012-01-10 18:26:00,
2012-01-10 12:31:00,45.0,45.0,29.86,South,173,2.7,4.0,100,0.00,,,0.16,VWS V13.01,2012-01-10 18:31:00,
2012-01-10 12:36:00,45.1,45.1,29.86,South,177,0.0,0.0,100,0.00,,,0.16,VWS V13.01,2012-01-10 18:36:00,
2012-01-10 12:41:00,45.1,45.1,29.86,SSE,159,3.1,3.1,100,0.00,,,0.16,VWS V13.01,2012-01-10 18:41:00,
2012-01-10 12:46:00,45.3,45.3,29.86,SSE,150,2.2,2.7,100,0.00,,,0.16,VWS V13.01,2012-01-10 18:46:00,
2012-01-10 12:51:00,45.3,45.3,29.86,South,187,4.0,4.0,100,0.00,,,0.16,VWS V13.01,2012-01-10 18:51:00,
2012-01-10 12:56:00,45.1,45.1,29.86,South,171,0.0,0.0,100,0.00,,,0.16,VWS V13.01,2012-01-10 18:56:00,
2012-01-10 13:01:00,45.3,45.3,29.86,WSW,240,0.0,0.0,100,0.00,,,0.16,VWS V13.01,2012-01-10 19:01:00,
2012-01-10 13:06:00,45.1,45.1,29.86,WSW,252,0.0,0.0,100,0.08,,,0.24,VWS V13.01,2012-01-10 19:06:00,
2012-01-10 13:11:00,44.8,44.8,29.86,SSE,159,0.0,2.2,100,0.12,,,0.28,VWS V13.01,2012-01-10 19:11:00,
2012-01-10 13:16:00,44.6,44.6,29.86,SSE,159,0.0,0.0,100,0.12,,,0.28,VWS V13.01,2012-01-10 19:16:00,
2012-01-10 13:21:00,44.6,44.6,29.86,WSW,252,2.7,2.7,100,0.12,,,0.28,VWS V13.01,2012-01-10 19:21:00,
2012-01-10 13:26:00,44.6,44.6,29.86,SW,235,2.7,3.6,100,0.12,,,0.28,VWS V13.01,2012-01-10 19:26:00,
2012-01-10 13:31:00,44.4,44.4,29.83,SW,217,0.0,2.2,100,0.12,,,0.28,VWS V13.01,2012-01-10 19:31:00,
2012-01-10 13:36:00,44.6,44.6,29.83,SW,235,0.0,0.0,100,0.12,,,0.28,VWS V13.01,2012-01-10 19:36:00,
2012-01-10 13:41:00,44.6,44.6,29.83,SW,234,0.0,0.0,100,0.12,,,0.28,VWS V13.01,2012-01-10 19:41:00,
2012-01-10 13:46:00,44.8,44.8,29.80,WSW,238,0.0,0.0,100,0.12,,,0.28,VWS V13.01,2012-01-10 19:46:00,
2012-01-10 13:51:00,44.6,44.6,29.80,WSW,258,3.1,3.1,100,0.12,,,0.28,VWS V13.01,2012-01-10 19:51:00,
2012-01-10 13:56:00,44.8,44.8,29.80,SW,228,3.1,3.1,100,0.12,,,0.28,VWS V13.01,2012-01-10 19:56:00,
2012-01-10 14:01:00,44.8,44.8,29.80,SW,229,2.2,2.7,100,0.12,,,0.28,VWS V13.01,2012-01-10 20:01:00,
2012-01-10 14:06:00,44.8,44.8,29.80,SSE,147,0.0,3.1,100,0.04,,,0.28,VWS V13.01,2012-01-10 20:06:00,
2012-01-10 14:11:00,44.8,44.8,29.80,South,180,2.7,2.7,100,0.00,,,0.28,VWS V13.01,2012-01-10 20:11:00,
2012-01-10 14:16:00,44.8,44.8,29.80,South,169,0.0,2.2,100,0.00,,,0.28,VWS V13.01,2012-01-10 20:16:00,
2012-01-10 14:21:00,44.8,44.8,29.80,South,180,0.0,0.0,100,0.00,,,0.28,VWS V13.01,2012-01-10 20:21:00,
2012-01-10 14:26:00,44.8,44.8,29.80,South,185,0.0,2.7,100,0.00,,,0.28,VWS V13.01,2012-01-10 20:26:00,
2012-01-10 14:31:00,44.8,44.8,29.80,SW,220,2.7,2.7,100,0.00,,,0.28,VWS V13.01,2012-01-10 20:31:00,
2012-01-10 14:36:00,44.8,44.8,29.80,South,182,0.0,0.0,100,0.00,,,0.28,VWS V13.01,2012-01-10 20:36:00,
2012-01-10 14:41:00,44.6,44.6,29.80,South,182,0.0,0.0,100,0.00,,,0.28,VWS V13.01,2012-01-10 20:41:00,
2012-01-10 14:46:00,44.6,44.6,29.80,SSW,196,0.0,0.0,100,0.00,,,0.28,VWS V13.01,2012-01-10 20:46:00,
2012-01-10 14:51:00,44.6,44.6,29.80,SW,224,0.0,0.0,100,0.00,,,0.28,VWS V13.01,2012-01-10 20:51:00,
2012-01-10 14:56:00,44.8,44.8,29.80,South,169,2.7,2.7,100,0.00,,,0.28,VWS V13.01,2012-01-10 20:56:00,
2012-01-10 15:01:00,44.8,44.8,29.77,South,177,0.0,2.2,100,0.00,,,0.28,VWS V13.01,2012-01-10 21:01:00,
2012-01-10 15:06:00,44.6,44.6,29.77,SSW,208,2.7,2.7,100,0.12,,,0.39,VWS V13.01,2012-01-10 21:06:00,
2012-01-10 15:11:00,44.6,44.6,29.77,SW,227,2.7,3.6,100,0.12,,,0.39,VWS V13.01,2012-01-10 21:11:00,
2012-01-10 15:16:00,44.2,44.2,29.77,SW,215,3.6,4.0,100,0.12,,,0.39,VWS V13.01,2012-01-10 21:16:00,
2012-01-10 15:21:00,44.2,44.2,29.77,SSE,161,4.9,4.9,100,0.12,,,0.39,VWS V13.01,2012-01-10 21:21:00,
2012-01-10 15:26:00,44.2,44.2,29.77,SSE,164,3.1,5.4,100,0.16,,,0.43,VWS V13.01,2012-01-10 21:26:00,
2012-01-10 15:31:00,44.1,44.1,29.80,South,186,3.6,3.6,100,0.16,,,0.43,VWS V13.01,2012-01-10 21:31:00,
2012-01-10 15:36:00,43.7,43.7,29.80,SW,236,3.6,3.6,100,0.16,,,0.43,VWS V13.01,2012-01-10 21:36:00,
2012-01-10 15:41:00,43.7,43.7,29.80,SW,222,4.0,4.0,100,0.16,,,0.43,VWS V13.01,2012-01-10 21:41:00,
2012-01-10 15:46:00,43.7,43.7,29.80,West,261,3.6,3.6,100,0.20,,,0.47,VWS V13.01,2012-01-10 21:46:00,
2012-01-10 15:51:00,43.7,43.7,29.80,SW,220,4.0,4.0,100,0.20,,,0.47,VWS V13.01,2012-01-10 21:51:00,
2012-01-10 15:56:00,43.7,43.7,29.80,South,186,4.9,6.3,100,0.24,,,0.51,VWS V13.01,2012-01-10 21:56:00,
2012-01-10 16:01:00,43.7,43.7,29.80,SSW,210,4.5,4.5,100,0.24,,,0.51,VWS V13.01,2012-01-10 22:01:00,
2012-01-10 16:06:00,43.7,43.7,29.80,WSW,247,4.9,4.9,100,0.24,,,0.55,VWS V13.01,2012-01-10 22:06:00,
2012-01-10 16:11:00,43.5,43.5,29.80,SW,224,3.1,3.6,100,0.20,,,0.59,VWS V13.01,2012-01-10 22:11:00,
2012-01-10 16:16:00,43.5,43.5,29.80,SW,234,4.0,5.8,100,0.20,,,0.59,VWS V13.01,2012-01-10 22:16:00,
2012-01-10 16:21:00,43.3,43.3,29.80,WSW,253,5.4,6.7,100,0.20,,,0.59,VWS V13.01,2012-01-10 22:21:00,
2012-01-10 16:26:00,43.3,43.3,29.80,West,274,6.3,6.3,100,0.20,,,0.63,VWS V13.01,2012-01-10 22:26:00,
2012-01-10 16:31:00,43.3,43.3,29.80,WSW,238,5.4,5.8,100,0.20,,,0.63,VWS V13.01,2012-01-10 22:31:00,
2012-01-10 16:36:00,43.3,43.3,29.80,WNW,283,3.6,3.6,100,0.20,,,0.63,VWS V13.01,2012-01-10 22:36:00,
2012-01-10 16:41:00,43.3,43.3,29.80,West,260,4.0,4.0,100,0.24,,,0.67,VWS V13.01,2012-01-10 22:41:00,
2012-01-10 16:46:00,43.5,43.5,29.80,WSW,258,3.6,4.9,100,0.20,,,0.67,VWS V13.01,2012-01-10 22:46:00,
2012-01-10 16:51:00,43.5,43.5,29.80,WSW,240,2.7,3.6,100,0.24,,,0.71,VWS V13.01,2012-01-10 22:51:00,
2012-01-10 16:56:00,43.5,43.5,29.80,WSW,256,3.1,5.4,100,0.24,,,0.75,VWS V13.01,2012-01-10 22:56:00,
2012-01-10 17:01:00,43.5,43.5,29.80,WSW,253,0.0,0.0,100,0.24,,,0.75,VWS V13.01,2012-01-10 23:01:00,
2012-01-10 17:06:00,43.5,43.5,29.80,WSW,240,0.0,0.0,100,0.24,,,0.79,VWS V13.01,2012-01-10 23:06:00,
2012-01-10 17:11:00,43.5,43.5,29.80,WSW,240,0.0,0.0,100,0.24,,,0.83,VWS V13.01,2012-01-10 23:11:00,
2012-01-10 17:16:00,43.7,43.7,29.80,West,277,3.1,3.1,100,0.24,,,0.83,VWS V13.01,2012-01-10 23:16:00,
2012-01-10 17:21:00,43.7,43.7,29.80,NW,310,6.3,6.3,100,0.24,,,0.83,VWS V13.01,2012-01-10 23:21:00,
2012-01-10 17:26:00,43.9,43.9,29.80,NNW,347,3.6,3.6,100,0.20,,,0.83,VWS V13.01,2012-01-10 23:26:00,
2012-01-10 17:31:00,43.9,43.9,29.74,North,356,0.0,2.7,100,0.20,,,0.83,VWS V13.01,2012-01-10 23:31:00,
2012-01-10 17:36:00,43.9,43.9,29.74,ESE,123,2.7,2.7,100,0.20,,,0.83,VWS V13.01,2012-01-10 23:36:00,
2012-01-10 17:41:00,44.1,44.1,29.74,ESE,122,5.8,6.3,100,0.16,,,0.83,VWS V13.01,2012-01-10 23:41:00,
2012-01-10 17:46:00,44.1,44.1,29.77,ESE,103,2.7,3.6,100,0.16,,,0.83,VWS V13.01,2012-01-10 23:46:00,
2012-01-10 17:51:00,44.1,44.1,29.77,NNE,13,3.6,5.4,100,0.12,,,0.83,VWS V13.01,2012-01-10 23:51:00,
2012-01-10 17:56:00,44.1,44.1,29.77,ENE,66,2.7,2.7,100,0.12,,,0.83,VWS V13.01,2012-01-10 23:56:00,
2012-01-10 18:01:00,44.1,44.1,29.74,East,83,0.0,0.0,100,0.08,,,0.83,VWS V13.01,2012-01-11 00:01:00,
2012-01-10 18:06:00,44.1,44.1,29.74,ESE,104,2.2,3.1,100,0.04,,,0.83,VWS V13.01,2012-01-11 00:06:00,
2012-01-10 18:11:00,44.1,44.1,29.74,NNE,30,3.6,3.6,100,0.00,,,0.83,VWS V13.01,2012-01-11 00:11:00,
2012-01-10 18:16:00,44.2,44.2,29.74,NE,38,2.7,2.7,100,0.00,,,0.83,VWS V13.01,2012-01-11 00:16:00,
2012-01-10 18:21:00,44.2,44.2,29.74,NNE,29,2.2,3.6,100,0.00,,,0.83,VWS V13.01,2012-01-11 00:21:00,
2012-01-10 18:26:00,44.2,44.2,29.74,North,350,0.0,0.0,100,0.00,,,0.83,VWS V13.01,2012-01-11 00:26:00,
2012-01-10 18:31:00,44.2,44.2,29.74,NNW,346,0.0,0.0,100,0.00,,,0.83,VWS V13.01,2012-01-11 00:31:00,
2012-01-10 18:36:00,44.2,44.2,29.74,ENE,57,0.0,3.1,100,0.00,,,0.83,VWS V13.01,2012-01-11 00:36:00,
2012-01-10 18:41:00,44.2,44.2,29.74,North,4,0.0,0.0,100,0.00,,,0.83,VWS V13.01,2012-01-11 00:41:00,
2012-01-10 18:46:00,44.2,44.2,29.74,ENE,75,0.0,0.0,100,0.00,,,0.83,VWS V13.01,2012-01-11 00:46:00,
2012-01-10 18:51:00,44.2,44.2,29.74,East,80,0.0,0.0,100,0.00,,,0.83,VWS V13.01,2012-01-11 00:51:00,
2012-01-10 18:56:00,44.2,44.2,29.74,East,81,0.0,0.0,100,0.00,,,0.83,VWS V13.01,2012-01-11 00:56:00,
2012-01-10 19:01:00,44.2,44.2,29.74,East,81,0.0,0.0,100,0.00,,,0.83,VWS V13.01,2012-01-11 01:01:00,
2012-01-10 19:06:00,44.2,44.2,29.74,ESE,103,0.0,0.0,100,0.00,,,0.83,VWS V13.01,2012-01-11 01:06:00,
2012-01-10 19:11:00,44.1,44.1,29.74,ESE,103,0.0,0.0,100,0.00,,,0.83,VWS V13.01,2012-01-11 01:11:00,
2012-01-10 19:16:00,44.1,44.1,29.74,ESE,103,0.0,0.0,100,0.00,,,0.83,VWS V13.01,2012-01-11 01:16:00,
2012-01-10 19:21:00,44.1,44.1,29.74,ESE,103,0.0,0.0,100,0.00,,,0.83,VWS V13.01,2012-01-11 01:21:00,
2012-01-10 19:26:00,44.1,44.1,29.74,ESE,103,0.0,0.0,100,0.00,,,0.83,VWS V13.01,2012-01-11 01:26:00,
2012-01-10 19:31:00,43.9,43.9,29.74,ESE,103,0.0,0.0,100,0.00,,,0.83,VWS V13.01,2012-01-11 01:31:00,
2012-01-10 19:36:00,43.7,43.7,29.74,NNE,18,0.0,2.7,100,0.00,,,0.83,VWS V13.01,2012-01-11 01:36:00,
2012-01-10 19:41:00,43.7,43.7,29.74,NNE,18,0.0,0.0,100,0.00,,,0.83,VWS V13.01,2012-01-11 01:41:00,
2012-01-10 19:46:00,43.7,43.7,29.74,NE,40,2.7,2.7,100,0.00,,,0.83,VWS V13.01,2012-01-11 01:46:00,
2012-01-10 19:51:00,43.7,43.7,29.74,NNE,27,0.0,0.0,100,0.00,,,0.83,VWS V13.01,2012-01-11 01:51:00,
2012-01-10 19:56:00,43.7,43.7,29.74,North,4,0.0,0.0,100,0.00,,,0.83,VWS V13.01,2012-01-11 01:56:00,
2012-01-10 20:01:00,43.7,43.7,29.74,NNW,347,0.0,0.0,100,0.00,,,0.83,VWS V13.01,2012-01-11 02:01:00,
2012-01-10 20:06:00,43.7,43.7,29.74,NNW,344,0.0,0.0,100,0.00,,,0.83,VWS V13.01,2012-01-11 02:06:00,
2012-01-10 20:11:00,43.7,43.7,29.74,NNW,343,0.0,0.0,100,0.00,,,0.83,VWS V13.01,2012-01-11 02:11:00,
2012-01-10 20:16:00,43.7,43.7,29.74,NNW,341,0.0,0.0,100,0.00,,,0.83,VWS V13.01,2012-01-11 02:16:00,
2012-01-10 20:21:00,43.7,43.7,29.74,WNW,301,0.0,0.0,100,0.00,,,0.83,VWS V13.01,2012-01-11 02:21:00,
2012-01-10 20:26:00,43.7,43.7,29.74,WNW,301,0.0,0.0,100,0.00,,,0.83,VWS V13.01,2012-01-11 02:26:00,
2012-01-10 20:31:00,43.9,43.9,29.74,WNW,301,0.0,0.0,100,0.00,,,0.83,VWS V13.01,2012-01-11 02:31:00,
2012-01-10 20:36:00,43.9,43.9,29.74,West,279,0.0,0.0,100,0.00,,,0.83,VWS V13.01,2012-01-11 02:36:00,
2012-01-10 20:41:00,43.9,43.9,29.74,WSW,239,0.0,0.0,100,0.00,,,0.83,VWS V13.01,2012-01-11 02:41:00,
2012-01-10 20:46:00,44.1,44.1,29.74,SW,217,0.0,0.0,100,0.00,,,0.83,VWS V13.01,2012-01-11 02:46:00,
2012-01-10 20:51:00,44.1,44.1,29.74,SSW,212,0.0,0.0,100,0.00,,,0.83,VWS V13.01,2012-01-11 02:51:00,
2012-01-10 20:56:00,44.1,44.1,29.74,South,178,0.0,0.0,100,0.00,,,0.83,VWS V13.01,2012-01-11 02:56:00,
2012-01-10 21:01:00,44.1,44.1,29.74,South,178,0.0,0.0,100,0.00,,,0.83,VWS V13.01,2012-01-11 03:01:00,
2012-01-10 21:06:00,44.1,44.1,29.74,South,178,0.0,0.0,100,0.00,,,0.83,VWS V13.01,2012-01-11 03:06:00,
2012-01-10 21:11:00,44.1,44.1,29.74,South,178,0.0,0.0,100,0.00,,,0.83,VWS V13.01,2012-01-11 03:11:00,
2012-01-10 21:16:00,44.1,44.1,29.74,South,177,0.0,0.0,100,0.00,,,0.83,VWS V13.01,2012-01-11 03:16:00,
2012-01-10 21:21:00,44.1,44.1,29.74,South,182,0.0,0.0,100,0.00,,,0.83,VWS V13.01,2012-01-11 03:21:00,
2012-01-10 21:26:00,43.7,43.7,29.74,North,352,3.1,3.1,100,0.00,,,0.83,VWS V13.01,2012-01-11 03:26:00,
2012-01-10 21:31:00,43.9,43.9,29.71,WSW,253,0.0,0.0,100,0.00,,,0.83,VWS V13.01,2012-01-11 03:31:00,
2012-01-10 21:36:00,44.1,44.1,29.71,SW,233,2.2,2.2,100,0.00,,,0.83,VWS V13.01,2012-01-11 03:36:00,
2012-01-10 21:41:00,44.1,44.1,29.71,SW,236,3.6,3.6,100,0.00,,,0.83,VWS V13.01,2012-01-11 03:41:00,
2012-01-10 21:46:00,44.2,44.2,29.71,WSW,242,3.1,4.0,100,0.00,,,0.83,VWS V13.01,2012-01-11 03:46:00,
2012-01-10 21:51:00,44.2,44.2,29.71,WSW,249,2.7,2.7,100,0.00,,,0.83,VWS V13.01,2012-01-11 03:51:00,
2012-01-10 21:56:00,44.2,44.2,29.71,West,260,3.1,3.1,100,0.00,,,0.83,VWS V13.01,2012-01-11 03:56:00,
2012-01-10 22:01:00,44.2,44.2,29.71,WSW,258,2.7,2.7,100,0.00,,,0.83,VWS V13.01,2012-01-11 04:01:00,
2012-01-10 22:06:00,44.2,44.2,29.71,WSW,250,0.0,0.0,100,0.00,,,0.83,VWS V13.01,2012-01-11 04:06:00,
2012-01-10 22:11:00,44.2,44.2,29.71,WSW,241,2.7,2.7,100,0.00,,,0.83,VWS V13.01,2012-01-11 04:11:00,
2012-01-10 22:16:00,44.2,44.2,29.71,SW,236,0.0,0.0,100,0.00,,,0.83,VWS V13.01,2012-01-11 04:16:00,
2012-01-10 22:21:00,44.2,44.2,29.71,SW,235,0.0,0.0,100,0.00,,,0.83,VWS V13.01,2012-01-11 04:21:00,
2012-01-10 22:26:00,44.4,44.4,29.71,SW,236,0.0,0.0,100,0.00,,,0.83,VWS V13.01,2012-01-11 04:26:00,
2012-01-10 22:31:00,44.4,44.4,29.71,SW,236,0.0,0.0,100,0.00,,,0.83,VWS V13.01,2012-01-11 04:31:00,
2012-01-10 22:36:00,44.4,44.4,29.71,SW,236,0.0,0.0,100,0.00,,,0.83,VWS V13.01,2012-01-11 04:36:00,
2012-01-10 22:41:00,44.4,44.4,29.71,SW,236,0.0,0.0,100,0.00,,,0.83,VWS V13.01,2012-01-11 04:41:00,
2012-01-10 22:46:00,44.4,44.4,29.71,SW,236,0.0,0.0,100,0.00,,,0.83,VWS V13.01,2012-01-11 04:46:00,
2012-01-10 22:51:00,44.4,44.4,29.71,SW,236,0.0,0.0,100,0.00,,,0.83,VWS V13.01,2012-01-11 04:51:00,
2012-01-10 22:56:00,44.4,44.4,29.71,SW,236,0.0,0.0,100,0.00,,,0.83,VWS V13.01,2012-01-11 04:56:00,
2012-01-10 23:00:00,44.4,44.4,29.71,SW,236,0.0,0.0,100,0.00,,,0.83,VWS V13.01,2012-01-11 05:00:00,
2012-01-10 23:05:00,44.2,44.2,29.71,SW,236,0.0,0.0,100,0.00,,,0.83,VWS V13.01,2012-01-11 05:05:00,
2012-01-10 23:10:00,44.1,44.1,29.71,SW,236,0.0,0.0,100,0.00,,,0.83,VWS V13.01,2012-01-11 05:10:00,
2012-01-10 23:15:00,43.9,43.9,29.71,SW,236,0.0,0.0,100,0.00,,,0.83,VWS V13.01,2012-01-11 05:15:00,
2012-01-10 23:20:00,43.7,43.7,29.71,West,261,0.0,0.0,100,0.00,,,0.83,VWS V13.01,2012-01-11 05:20:00,
2012-01-10 23:25:00,43.5,43.5,29.71,West,261,0.0,0.0,100,0.00,,,0.83,VWS V13.01,2012-01-11 05:25:00,
2012-01-10 23:30:00,43.3,43.3,29.71,West,261,0.0,0.0,100,0.00,,,0.83,VWS V13.01,2012-01-11 05:30:00,
2012-01-10 23:35:00,43.5,43.5,29.71,West,261,0.0,0.0,100,0.00,,,0.83,VWS V13.01,2012-01-11 05:35:00,
2012-01-10 23:40:00,43.5,43.5,29.71,West,261,0.0,0.0,100,0.00,,,0.83,VWS V13.01,2012-01-11 05:40:00,
2012-01-10 23:45:00,43.5,43.5,29.68,West,261,0.0,0.0,100,0.00,,,0.83,VWS V13.01,2012-01-11 05:45:00,
2012-01-10 23:50:00,43.5,43.5,29.68,West,261,0.0,0.0,100,0.00,,,0.83,VWS V13.01,2012-01-11 05:50:00,
2012-01-10 23:55:00,43.5,43.5,29.68,West,261,0.0,0.0,100,0.00,,,0.83,VWS V13.01,2012-01-11 05:55:00,